sensor_id;sensor_type;location;lat;lon;timestamp;pressure;altitude;pressure_sealevel;temperature;humidity
13312;BME280;34033;48.672;9.376;2022-12-29T00:02:12;98154.81;;;5.97;81.56
13312;BME280;34033;48.672;9.376;2022-12-29T00:04:37;98150.88;;;5.98;81.77
13312;BME280;34033;48.672;9.376;2022-12-29T00:07:03;98143.72;;;5.97;81.69
13312;BME280;34033;48.672;9.376;2022-12-29T00:09:32;98141.38;;;5.99;81.39
13312;BME280;34033;48.672;9.376;2022-12-29T00:11:59;98146.19;;;6.02;81.60
13312;BME280;34033;48.672;9.376;2022-12-29T00:14:24;98149.09;;;6.09;81.49
13312;BME280;34033;48.672;9.376;2022-12-29T00:17:08;98155.00;;;6.07;81.46
13312;BME280;34033;48.672;9.376;2022-12-29T00:19:34;98145.88;;;6.07;81.31
13312;BME280;34033;48.672;9.376;2022-12-29T00:22:17;98124.88;;;6.06;81.61
13312;BME280;34033;48.672;9.376;2022-12-29T00:25:02;98132.97;;;6.14;81.97
13312;BME280;34033;48.672;9.376;2022-12-29T00:27:34;98122.28;;;6.16;81.68
13312;BME280;34033;48.672;9.376;2022-12-29T00:30:22;98120.38;;;6.20;81.60
13312;BME280;34033;48.672;9.376;2022-12-29T00:33:17;98112.41;;;6.19;82.06
13312;BME280;34033;48.672;9.376;2022-12-29T00:36:08;98108.91;;;6.22;81.67
13312;BME280;34033;48.672;9.376;2022-12-29T00:38:39;98100.91;;;6.17;82.21
13312;BME280;34033;48.672;9.376;2022-12-29T00:41:23;98107.63;;;6.16;82.37
13312;BME280;34033;48.672;9.376;2022-12-29T00:44:09;98105.69;;;6.20;82.83
13312;BME280;34033;48.672;9.376;2022-12-29T00:46:37;98113.28;;;6.23;82.59
13312;BME280;34033;48.672;9.376;2022-12-29T00:49:04;98102.59;;;6.25;82.69
13312;BME280;34033;48.672;9.376;2022-12-29T00:51:49;98108.59;;;6.27;82.62
13312;BME280;34033;48.672;9.376;2022-12-29T00:54:15;98114.88;;;6.24;82.45
13312;BME280;34033;48.672;9.376;2022-12-29T00:56:40;98111.69;;;6.22;82.87
13312;BME280;34033;48.672;9.376;2022-12-29T00:59:09;98100.19;;;6.23;82.73
13312;BME280;34033;48.672;9.376;2022-12-29T01:01:36;98102.25;;;6.26;82.62
13312;BME280;34033;48.672;9.376;2022-12-29T01:04:02;98107.31;;;6.21;82.37
13312;BME280;34033;48.672;9.376;2022-12-29T01:06:28;98101.75;;;6.21;82.75
13312;BME280;34033;48.672;9.376;2022-12-29T01:08:53;98103.38;;;6.22;83.05
13312;BME280;34033;48.672;9.376;2022-12-29T01:11:38;98106.13;;;6.22;82.61
13312;BME280;34033;48.672;9.376;2022-12-29T01:14:04;98100.50;;;6.18;83.15
13312;BME280;34033;48.672;9.376;2022-12-29T01:16:29;98104.41;;;6.14;83.51
13312;BME280;34033;48.672;9.376;2022-12-29T01:18:55;98102.91;;;6.20;83.27
13312;BME280;34033;48.672;9.376;2022-12-29T01:21:20;98098.31;;;6.27;83.18
13312;BME280;34033;48.672;9.376;2022-12-29T01:23:45;98103.09;;;6.31;82.27
13312;BME280;34033;48.672;9.376;2022-12-29T01:26:12;98101.88;;;6.28;82.47
13312;BME280;34033;48.672;9.376;2022-12-29T01:28:38;98123.41;;;6.35;82.33
13312;BME280;34033;48.672;9.376;2022-12-29T01:31:08;98112.25;;;6.31;82.64
13312;BME280;34033;48.672;9.376;2022-12-29T01:33:34;98114.25;;;6.34;82.45
13312;BME280;34033;48.672;9.376;2022-12-29T01:36:12;98116.75;;;6.39;82.40
13312;BME280;34033;48.672;9.376;2022-12-29T01:38:39;98112.69;;;6.33;82.10
13312;BME280;34033;48.672;9.376;2022-12-29T01:41:05;98108.72;;;6.34;82.17
13312;BME280;34033;48.672;9.376;2022-12-29T01:43:46;98118.53;;;6.28;82.75
13312;BME280;34033;48.672;9.376;2022-12-29T01:48:47;98111.06;;;6.32;82.73
13312;BME280;34033;48.672;9.376;2022-12-29T01:51:14;98116.66;;;6.36;82.83
13312;BME280;34033;48.672;9.376;2022-12-29T01:53:40;98118.22;;;6.33;82.62
13312;BME280;34033;48.672;9.376;2022-12-29T01:56:07;98117.03;;;6.34;83.01
13312;BME280;34033;48.672;9.376;2022-12-29T01:58:38;98116.31;;;6.37;82.97
13312;BME280;34033;48.672;9.376;2022-12-29T02:01:05;98112.69;;;6.33;82.92
13312;BME280;34033;48.672;9.376;2022-12-29T02:03:31;98113.41;;;6.30;83.16
13312;BME280;34033;48.672;9.376;2022-12-29T02:06:18;98113.47;;;6.34;83.24
13312;BME280;34033;48.672;9.376;2022-12-29T02:08:55;98105.56;;;6.36;83.43
13312;BME280;34033;48.672;9.376;2022-12-29T02:11:23;98107.97;;;6.37;83.31
13312;BME280;34033;48.672;9.376;2022-12-29T02:13:50;98100.38;;;6.34;83.31
13312;BME280;34033;48.672;9.376;2022-12-29T02:21:52;98096.88;;;6.37;83.15
13312;BME280;34033;48.672;9.376;2022-12-29T02:35:27;98092.31;;;6.48;82.83
13312;BME280;34033;48.672;9.376;2022-12-29T02:38:20;98075.66;;;6.48;82.59
13312;BME280;34033;48.672;9.376;2022-12-29T02:40:58;98079.16;;;6.45;82.80
13312;BME280;34033;48.672;9.376;2022-12-29T02:43:52;98087.78;;;6.40;83.23
13312;BME280;34033;48.672;9.376;2022-12-29T02:46:29;98083.34;;;6.36;83.58
13312;BME280;34033;48.672;9.376;2022-12-29T02:51:35;98073.19;;;6.43;84.06
13312;BME280;34033;48.672;9.376;2022-12-29T02:54:03;98077.06;;;6.39;83.71
13312;BME280;34033;48.672;9.376;2022-12-29T02:56:47;98069.91;;;6.38;84.06
13312;BME280;34033;48.672;9.376;2022-12-29T02:59:12;98069.13;;;6.37;84.23
13312;BME280;34033;48.672;9.376;2022-12-29T03:04:53;98056.16;;;6.45;84.30
13312;BME280;34033;48.672;9.376;2022-12-29T03:07:49;98060.50;;;6.46;84.11
13312;BME280;34033;48.672;9.376;2022-12-29T03:10:41;98071.25;;;6.47;84.13
13312;BME280;34033;48.672;9.376;2022-12-29T03:18:47;98056.72;;;6.57;83.03
13312;BME280;34033;48.672;9.376;2022-12-29T03:21:32;98054.59;;;6.74;82.43
13312;BME280;34033;48.672;9.376;2022-12-29T03:24:25;98051.81;;;7.00;81.02
13312;BME280;34033;48.672;9.376;2022-12-29T03:26:54;98047.75;;;7.24;79.84
13312;BME280;34033;48.672;9.376;2022-12-29T03:29:22;98045.34;;;7.55;77.27
13312;BME280;34033;48.672;9.376;2022-12-29T03:31:49;98047.25;;;7.85;75.29
13312;BME280;34033;48.672;9.376;2022-12-29T03:34:18;98041.19;;;8.16;73.28
13312;BME280;34033;48.672;9.376;2022-12-29T03:36:52;98036.25;;;8.40;71.64
13312;BME280;34033;48.672;9.376;2022-12-29T03:39:20;98047.16;;;8.59;70.96
13312;BME280;34033;48.672;9.376;2022-12-29T03:41:49;98038.19;;;8.87;68.93
13312;BME280;34033;48.672;9.376;2022-12-29T03:44:16;98030.28;;;8.99;68.98
13312;BME280;34033;48.672;9.376;2022-12-29T03:46:41;98035.53;;;9.11;67.90
13312;BME280;34033;48.672;9.376;2022-12-29T03:49:06;98023.63;;;9.21;67.84
13312;BME280;34033;48.672;9.376;2022-12-29T03:51:32;98020.50;;;9.34;66.73
13312;BME280;34033;48.672;9.376;2022-12-29T03:53:57;98030.09;;;9.43;66.64
13312;BME280;34033;48.672;9.376;2022-12-29T03:56:22;98026.91;;;9.48;66.43
13312;BME280;34033;48.672;9.376;2022-12-29T03:58:47;98009.41;;;9.55;66.02
13312;BME280;34033;48.672;9.376;2022-12-29T04:01:13;98013.03;;;9.62;65.61
13312;BME280;34033;48.672;9.376;2022-12-29T04:03:38;98011.06;;;9.70;65.39
13312;BME280;34033;48.672;9.376;2022-12-29T04:06:03;98016.63;;;9.77;64.93
13312;BME280;34033;48.672;9.376;2022-12-29T04:08:29;98015.84;;;9.77;64.92
13312;BME280;34033;48.672;9.376;2022-12-29T04:10:54;98011.47;;;9.83;64.39
13312;BME280;34033;48.672;9.376;2022-12-29T04:13:20;98009.47;;;9.87;64.08
13312;BME280;34033;48.672;9.376;2022-12-29T04:15:45;98020.66;;;9.90;63.97
13312;BME280;34033;48.672;9.376;2022-12-29T04:18:11;98016.28;;;9.89;63.55
13312;BME280;34033;48.672;9.376;2022-12-29T04:20:37;98027.84;;;9.91;63.85
13312;BME280;34033;48.672;9.376;2022-12-29T04:23:20;98029.03;;;9.94;63.63
13312;BME280;34033;48.672;9.376;2022-12-29T04:25:46;98036.63;;;9.97;62.88
13312;BME280;34033;48.672;9.376;2022-12-29T04:28:15;98035.84;;;9.96;63.23
13312;BME280;34033;48.672;9.376;2022-12-29T04:30:41;98036.63;;;9.93;63.56
13312;BME280;34033;48.672;9.376;2022-12-29T04:33:07;98040.59;;;9.92;63.32
13312;BME280;34033;48.672;9.376;2022-12-29T04:35:32;98044.59;;;9.95;62.92
13312;BME280;34033;48.672;9.376;2022-12-29T04:37:58;98042.19;;;9.93;63.12
13312;BME280;34033;48.672;9.376;2022-12-29T04:40:23;98043.41;;;9.96;62.16
13312;BME280;34033;48.672;9.376;2022-12-29T04:42:49;98042.22;;;9.97;62.67
13312;BME280;34033;48.672;9.376;2022-12-29T04:45:15;98034.25;;;10.02;61.80
13312;BME280;34033;48.672;9.376;2022-12-29T04:47:40;98023.88;;;10.07;62.55
13312;BME280;34033;48.672;9.376;2022-12-29T04:50:06;98027.88;;;10.05;61.90
13312;BME280;34033;48.672;9.376;2022-12-29T04:52:31;98021.50;;;10.09;62.12
13312;BME280;34033;48.672;9.376;2022-12-29T04:54:57;98021.88;;;10.11;61.69
13312;BME280;34033;48.672;9.376;2022-12-29T04:57:22;98022.28;;;10.09;61.99
13312;BME280;34033;48.672;9.376;2022-12-29T04:59:47;98018.31;;;10.07;61.99
13312;BME280;34033;48.672;9.376;2022-12-29T05:02:13;98031.06;;;10.00;61.88
13312;BME280;34033;48.672;9.376;2022-12-29T05:04:38;98032.66;;;10.01;61.76
13312;BME280;34033;48.672;9.376;2022-12-29T05:07:03;98024.66;;;10.03;62.07
13312;BME280;34033;48.672;9.376;2022-12-29T05:09:28;98037.44;;;10.04;62.13
13312;BME280;34033;48.672;9.376;2022-12-29T05:11:55;98054.22;;;10.08;62.08
13312;BME280;34033;48.672;9.376;2022-12-29T05:14:20;98040.63;;;10.07;61.84
13312;BME280;34033;48.672;9.376;2022-12-29T05:16:45;98045.03;;;10.08;61.64
13312;BME280;34033;48.672;9.376;2022-12-29T05:19:11;98045.84;;;10.08;61.67
13312;BME280;34033;48.672;9.376;2022-12-29T05:21:36;98043.44;;;10.14;61.74
13312;BME280;34033;48.672;9.376;2022-12-29T05:24:01;98044.63;;;10.13;61.55
13312;BME280;34033;48.672;9.376;2022-12-29T05:26:27;98048.25;;;10.17;61.64
13312;BME280;34033;48.672;9.376;2022-12-29T05:28:52;98037.91;;;10.24;61.51
13312;BME280;34033;48.672;9.376;2022-12-29T05:31:18;98036.69;;;10.32;61.78
13312;BME280;34033;48.672;9.376;2022-12-29T05:33:43;98038.69;;;10.32;61.34
13312;BME280;34033;48.672;9.376;2022-12-29T05:36:13;98039.09;;;10.30;61.62
13312;BME280;34033;48.672;9.376;2022-12-29T05:38:39;98037.91;;;10.28;61.87
13312;BME280;34033;48.672;9.376;2022-12-29T05:41:04;98033.53;;;10.30;62.04
13312;BME280;34033;48.672;9.376;2022-12-29T05:43:29;98037.09;;;10.24;61.78
13312;BME280;34033;48.672;9.376;2022-12-29T05:45:55;98037.50;;;10.22;61.77
13312;BME280;34033;48.672;9.376;2022-12-29T05:48:21;98045.47;;;10.17;62.09
13312;BME280;34033;48.672;9.376;2022-12-29T05:50:47;98052.22;;;10.16;62.12
13312;BME280;34033;48.672;9.376;2022-12-29T05:53:13;98048.66;;;10.22;62.04
13312;BME280;34033;48.672;9.376;2022-12-29T05:55:38;98045.88;;;10.19;61.77
13312;BME280;34033;48.672;9.376;2022-12-29T05:58:04;98039.09;;;10.20;62.40
13312;BME280;34033;48.672;9.376;2022-12-29T06:00:29;98039.50;;;10.25;62.36
13312;BME280;34033;48.672;9.376;2022-12-29T06:02:54;98041.50;;;10.25;61.87
13312;BME280;34033;48.672;9.376;2022-12-29T06:05:20;98028.72;;;10.24;61.79
13312;BME280;34033;48.672;9.376;2022-12-29T06:07:45;98025.53;;;10.29;62.49
13312;BME280;34033;48.672;9.376;2022-12-29T06:10:10;98025.13;;;10.27;62.42
13312;BME280;34033;48.672;9.376;2022-12-29T06:12:36;98035.91;;;10.25;62.61
13312;BME280;34033;48.672;9.376;2022-12-29T06:15:01;98031.50;;;10.24;62.26
13312;BME280;34033;48.672;9.376;2022-12-29T06:17:26;98017.16;;;10.29;62.50
13312;BME280;34033;48.672;9.376;2022-12-29T06:19:52;98017.94;;;10.33;62.24
13312;BME280;34033;48.672;9.376;2022-12-29T06:22:17;98009.97;;;10.35;61.85
13312;BME280;34033;48.672;9.376;2022-12-29T06:24:42;98000.78;;;10.38;62.21
13312;BME280;34033;48.672;9.376;2022-12-29T06:27:08;97999.19;;;10.44;62.28
13312;BME280;34033;48.672;9.376;2022-12-29T06:29:33;97999.97;;;10.48;61.92
13312;BME280;34033;48.672;9.376;2022-12-29T06:32:00;97993.59;;;10.51;61.78
13312;BME280;34033;48.672;9.376;2022-12-29T06:34:25;97993.59;;;10.51;61.83
13312;BME280;34033;48.672;9.376;2022-12-29T06:36:51;97999.16;;;10.55;62.03
13312;BME280;34033;48.672;9.376;2022-12-29T06:39:16;98007.16;;;10.56;61.91
13312;BME280;34033;48.672;9.376;2022-12-29T06:41:41;98014.75;;;10.56;62.22
13312;BME280;34033;48.672;9.376;2022-12-29T06:44:06;98019.13;;;10.60;62.27
13312;BME280;34033;48.672;9.376;2022-12-29T06:46:32;98011.94;;;10.63;62.42
13312;BME280;34033;48.672;9.376;2022-12-29T06:48:57;98019.13;;;10.67;62.75
13312;BME280;34033;48.672;9.376;2022-12-29T06:51:22;98020.72;;;10.68;63.21
13312;BME280;34033;48.672;9.376;2022-12-29T06:53:48;98026.31;;;10.68;63.40
13312;BME280;34033;48.672;9.376;2022-12-29T06:56:13;98016.31;;;10.67;63.72
13312;BME280;34033;48.672;9.376;2022-12-29T06:58:38;98012.34;;;10.68;62.70
13312;BME280;34033;48.672;9.376;2022-12-29T07:01:04;98017.13;;;10.68;62.80
13312;BME280;34033;48.672;9.376;2022-12-29T07:03:29;98010.34;;;10.65;63.14
13312;BME280;34033;48.672;9.376;2022-12-29T07:05:55;98019.91;;;10.61;63.36
13312;BME280;34033;48.672;9.376;2022-12-29T07:08:23;98015.94;;;10.62;63.88
13312;BME280;34033;48.672;9.376;2022-12-29T07:10:48;98018.31;;;10.70;64.04
13312;BME280;34033;48.672;9.376;2022-12-29T07:13:13;98005.94;;;10.75;63.77
13312;BME280;34033;48.672;9.376;2022-12-29T07:15:39;98006.31;;;10.77;63.85
13312;BME280;34033;48.672;9.376;2022-12-29T07:18:04;98013.47;;;10.92;65.41
13312;BME280;34033;48.672;9.376;2022-12-29T07:20:30;98007.44;;;11.04;64.42
13312;BME280;34033;48.672;9.376;2022-12-29T07:22:55;98016.63;;;11.08;63.68
13312;BME280;34033;48.672;9.376;2022-12-29T07:25:21;98002.63;;;11.19;64.69
13312;BME280;34033;48.672;9.376;2022-12-29T07:27:46;98000.97;;;11.25;64.28
13312;BME280;34033;48.672;9.376;2022-12-29T07:30:12;98000.63;;;11.23;63.75
13312;BME280;34033;48.672;9.376;2022-12-29T07:32:38;98002.97;;;11.32;63.16
13312;BME280;34033;48.672;9.376;2022-12-29T07:35:03;98005.72;;;11.42;63.68
13312;BME280;34033;48.672;9.376;2022-12-29T07:37:28;98004.88;;;11.52;69.21
13312;BME280;34033;48.672;9.376;2022-12-29T07:39:54;98010.09;;;11.50;64.23
13312;BME280;34033;48.672;9.376;2022-12-29T07:42:19;98016.09;;;11.49;65.01
13312;BME280;34033;48.672;9.376;2022-12-29T07:44:44;98017.75;;;11.32;62.91
13312;BME280;34033;48.672;9.376;2022-12-29T07:47:10;98016.47;;;11.47;65.00
13312;BME280;34033;48.672;9.376;2022-12-29T07:49:35;98023.31;;;11.46;66.52
13312;BME280;34033;48.672;9.376;2022-12-29T07:52:01;98018.88;;;11.49;65.32
13312;BME280;34033;48.672;9.376;2022-12-29T07:54:26;98018.84;;;11.52;65.89
13312;BME280;34033;48.672;9.376;2022-12-29T07:56:51;98021.28;;;11.47;64.56
13312;BME280;34033;48.672;9.376;2022-12-29T07:59:17;98018.13;;;11.38;63.76
13312;BME280;34033;48.672;9.376;2022-12-29T08:01:42;98027.72;;;11.40;64.34
13312;BME280;34033;48.672;9.376;2022-12-29T08:04:08;98029.31;;;11.41;64.56
13312;BME280;34033;48.672;9.376;2022-12-29T08:06:34;98040.13;;;11.32;64.04
13312;BME280;34033;48.672;9.376;2022-12-29T08:08:59;98041.75;;;11.33;64.50
13312;BME280;34033;48.672;9.376;2022-12-29T08:11:26;98035.31;;;11.43;64.71
13312;BME280;34033;48.672;9.376;2022-12-29T08:13:51;98030.94;;;11.32;64.38
13312;BME280;34033;48.672;9.376;2022-12-29T08:16:16;98035.78;;;11.20;64.17
13312;BME280;34033;48.672;9.376;2022-12-29T08:18:42;98043.00;;;11.11;64.69
13312;BME280;34033;48.672;9.376;2022-12-29T08:21:07;98045.00;;;11.03;64.79
13312;BME280;34033;48.672;9.376;2022-12-29T08:23:32;98051.03;;;11.02;65.65
13312;BME280;34033;48.672;9.376;2022-12-29T08:26:03;98046.22;;;10.99;65.89
13312;BME280;34033;48.672;9.376;2022-12-29T08:28:29;98044.13;;;11.38;80.25
13312;BME280;34033;48.672;9.376;2022-12-29T08:30:57;98046.13;;;11.38;69.75
13312;BME280;34033;48.672;9.376;2022-12-29T08:33:23;98054.91;;;11.40;67.43
13312;BME280;34033;48.672;9.376;2022-12-29T08:35:49;98055.31;;;11.31;66.68
13312;BME280;34033;48.672;9.376;2022-12-29T08:38:14;98058.44;;;11.58;78.40
13312;BME280;34033;48.672;9.376;2022-12-29T08:40:40;98047.78;;;12.67;77.89
13312;BME280;34033;48.672;9.376;2022-12-29T08:43:05;98053.41;;;13.45;74.68
13312;BME280;34033;48.672;9.376;2022-12-29T08:45:31;98032.09;;;14.08;68.01
13312;BME280;34033;48.672;9.376;2022-12-29T08:47:56;98043.22;;;14.46;62.50
13312;BME280;34033;48.672;9.376;2022-12-29T08:50:21;98051.81;;;14.85;62.94
13312;BME280;34033;48.672;9.376;2022-12-29T08:52:47;98043.16;;;15.19;62.11
13312;BME280;34033;48.672;9.376;2022-12-29T08:55:12;98039.00;;;15.47;60.63
13312;BME280;34033;48.672;9.376;2022-12-29T08:57:37;98038.66;;;15.65;58.81
13312;BME280;34033;48.672;9.376;2022-12-29T09:00:04;98047.09;;;15.84;57.53
13312;BME280;34033;48.672;9.376;2022-12-29T09:02:29;98053.03;;;15.70;55.90
13312;BME280;34033;48.672;9.376;2022-12-29T09:04:54;98054.34;;;15.23;55.29
13312;BME280;34033;48.672;9.376;2022-12-29T09:07:22;98036.38;;;14.70;55.54
13312;BME280;34033;48.672;9.376;2022-12-29T09:09:47;98052.38;;;14.23;56.02
13312;BME280;34033;48.672;9.376;2022-12-29T09:12:12;98048.41;;;13.90;57.87
13312;BME280;34033;48.672;9.376;2022-12-29T09:14:38;98054.41;;;13.62;58.21
13312;BME280;34033;48.672;9.376;2022-12-29T09:17:03;98055.13;;;13.35;58.48
13312;BME280;34033;48.672;9.376;2022-12-29T09:19:47;98060.50;;;13.19;59.38
13312;BME280;34033;48.672;9.376;2022-12-29T09:22:12;98079.03;;;13.10;61.83
13312;BME280;34033;48.672;9.376;2022-12-29T09:24:37;98082.03;;;12.88;60.91
13312;BME280;34033;48.672;9.376;2022-12-29T09:27:03;98074.97;;;12.70;61.32
13312;BME280;34033;48.672;9.376;2022-12-29T09:29:28;98073.47;;;12.58;61.64
13312;BME280;34033;48.672;9.376;2022-12-29T09:31:53;98070.81;;;12.40;61.86
13312;BME280;34033;48.672;9.376;2022-12-29T09:34:19;98086.41;;;12.41;64.70
13312;BME280;34033;48.672;9.376;2022-12-29T09:36:44;98086.06;;;12.32;63.90
13312;BME280;34033;48.672;9.376;2022-12-29T09:39:09;98076.53;;;12.19;63.65
13312;BME280;34033;48.672;9.376;2022-12-29T09:42:13;98086.22;;;12.11;64.23
13312;BME280;34033;48.672;9.376;2022-12-29T09:45:21;98089.44;;;12.06;64.69
13312;BME280;34033;48.672;9.376;2022-12-29T09:47:51;98076.34;;;11.89;63.71
13312;BME280;34033;48.672;9.376;2022-12-29T09:50:22;98061.16;;;11.83;64.39
13312;BME280;34033;48.672;9.376;2022-12-29T09:52:54;98056.38;;;11.76;63.89
13312;BME280;34033;48.672;9.376;2022-12-29T09:55:29;98063.19;;;11.71;63.33
13312;BME280;34033;48.672;9.376;2022-12-29T09:57:59;98060.81;;;11.74;63.83
13312;BME280;34033;48.672;9.376;2022-12-29T10:01:22;98062.31;;;11.89;63.85
13312;BME280;34033;48.672;9.376;2022-12-29T10:03:24;98051.47;;;12.01;63.55
13312;BME280;34033;48.672;9.376;2022-12-29T10:06:11;98048.59;;;12.12;63.29
13312;BME280;34033;48.672;9.376;2022-12-29T10:17:27;98057.94;;;12.94;63.59
13312;BME280;34033;48.672;9.376;2022-12-29T10:23:02;98060.25;;;13.03;61.25
13312;BME280;34033;48.672;9.376;2022-12-29T10:25:25;98063.09;;;12.96;62.36
13312;BME280;34033;48.672;9.376;2022-12-29T10:27:53;98060.41;;;12.85;62.23
13312;BME280;34033;48.672;9.376;2022-12-29T10:30:21;98080.47;;;12.84;62.14
13312;BME280;34033;48.672;9.376;2022-12-29T10:32:56;98069.28;;;12.80;61.47
13312;BME280;34033;48.672;9.376;2022-12-29T10:35:32;98077.78;;;12.73;61.57
13312;BME280;34033;48.672;9.376;2022-12-29T10:38:12;98083.78;;;12.72;61.59
13312;BME280;34033;48.672;9.376;2022-12-29T10:40:47;98069.38;;;12.70;62.19
13312;BME280;34033;48.672;9.376;2022-12-29T10:43:26;98067.41;;;12.67;61.71
13312;BME280;34033;48.672;9.376;2022-12-29T10:45:59;98065.75;;;12.73;61.71
13312;BME280;34033;48.672;9.376;2022-12-29T10:48:35;98061.72;;;12.74;61.68
13312;BME280;34033;48.672;9.376;2022-12-29T10:51:04;98057.25;;;12.80;61.12
13312;BME280;34033;48.672;9.376;2022-12-29T10:53:38;98062.84;;;12.80;60.88
13312;BME280;34033;48.672;9.376;2022-12-29T10:56:15;98052.44;;;12.80;61.62
13312;BME280;34033;48.672;9.376;2022-12-29T10:58:46;98055.38;;;12.66;61.69
13312;BME280;34033;48.672;9.376;2022-12-29T11:01:13;98054.94;;;12.71;62.10
13312;BME280;34033;48.672;9.376;2022-12-29T11:04:49;98068.56;;;12.73;61.88
13312;BME280;34033;48.672;9.376;2022-12-29T11:06:42;98060.06;;;12.80;61.36
13312;BME280;34033;48.672;9.376;2022-12-29T11:09:12;98056.03;;;12.84;61.93
13312;BME280;34033;48.672;9.376;2022-12-29T11:11:40;98057.19;;;12.87;61.62
13312;BME280;34033;48.672;9.376;2022-12-29T11:16:34;98055.94;;;12.91;62.16
13312;BME280;34033;48.672;9.376;2022-12-29T11:19:00;98057.13;;;12.94;61.98
13312;BME280;34033;48.672;9.376;2022-12-29T11:21:37;98047.81;;;13.04;61.91
13312;BME280;34033;48.672;9.376;2022-12-29T11:24:27;98046.94;;;13.14;61.63
13312;BME280;34033;48.672;9.376;2022-12-29T11:26:54;98054.91;;;13.19;62.04
13312;BME280;34033;48.672;9.376;2022-12-29T11:29:38;98053.19;;;13.29;61.66
13312;BME280;34033;48.672;9.376;2022-12-29T11:32:20;98059.97;;;13.31;61.91
13312;BME280;34033;48.672;9.376;2022-12-29T11:34:47;98056.66;;;13.40;62.25
13312;BME280;34033;48.672;9.376;2022-12-29T11:37:18;98076.75;;;13.39;62.53
13312;BME280;34033;48.672;9.376;2022-12-29T11:42:43;98056.78;;;13.29;63.40
13312;BME280;34033;48.672;9.376;2022-12-29T11:45:18;98066.53;;;13.18;64.32
13312;BME280;34033;48.672;9.376;2022-12-29T11:47:47;98083.34;;;13.21;67.69
13312;BME280;34033;48.672;9.376;2022-12-29T11:50:31;98080.56;;;13.55;65.87
13312;BME280;34033;48.672;9.376;2022-12-29T11:55:39;98069.53;;;13.38;66.10
13312;BME280;34033;48.672;9.376;2022-12-29T11:58:06;98064.38;;;13.32;66.83
13312;BME280;34033;48.672;9.376;2022-12-29T12:00:34;98063.06;;;13.41;68.28
13312;BME280;34033;48.672;9.376;2022-12-29T12:03:13;98069.53;;;13.38;67.38
13312;BME280;34033;48.672;9.376;2022-12-29T12:05:46;98076.03;;;13.31;68.77
13312;BME280;34033;48.672;9.376;2022-12-29T12:11:17;98069.31;;;13.21;69.14
13312;BME280;34033;48.672;9.376;2022-12-29T12:14:13;98071.66;;;12.82;69.07
13312;BME280;34033;48.672;9.376;2022-12-29T12:19:32;98057.88;;;12.98;70.40
13312;BME280;34033;48.672;9.376;2022-12-29T12:22:16;98065.59;;;12.87;70.63
13312;BME280;34033;48.672;9.376;2022-12-29T12:25:01;98066.91;;;12.79;70.71
13312;BME280;34033;48.672;9.376;2022-12-29T12:27:39;98071.22;;;12.87;72.07
13312;BME280;34033;48.672;9.376;2022-12-29T12:30:18;98083.59;;;12.93;70.64
13312;BME280;34033;48.672;9.376;2022-12-29T12:35:26;98072.31;;;12.96;71.41
13312;BME280;34033;48.672;9.376;2022-12-29T13:10:19;98063.78;;;13.14;71.13
13312;BME280;34033;48.672;9.376;2022-12-29T13:18:25;98046.13;;;13.14;70.78
13312;BME280;34033;48.672;9.376;2022-12-29T13:20:55;98042.25;;;13.01;71.02
13312;BME280;34033;48.672;9.376;2022-12-29T13:26:24;98060.75;;;12.91;71.99
13312;BME280;34033;48.672;9.376;2022-12-29T13:28:58;98062.06;;;12.79;71.71
13312;BME280;34033;48.672;9.376;2022-12-29T13:36:43;98059.34;;;12.72;72.80
13312;BME280;34033;48.672;9.376;2022-12-29T13:39:20;98054.53;;;12.73;73.04
13312;BME280;34033;48.672;9.376;2022-12-29T13:41:53;98056.44;;;12.83;72.53
13312;BME280;34033;48.672;9.376;2022-12-29T13:44:31;98058.00;;;12.87;72.25
13312;BME280;34033;48.672;9.376;2022-12-29T13:47:01;98052.78;;;12.86;72.76
13312;BME280;34033;48.672;9.376;2022-12-29T13:49:30;98041.78;;;13.06;72.07
13312;BME280;34033;48.672;9.376;2022-12-29T13:51:59;98045.06;;;13.01;71.80
13312;BME280;34033;48.672;9.376;2022-12-29T13:54:43;98044.97;;;13.08;71.18
13312;BME280;34033;48.672;9.376;2022-12-29T14:00:04;98034.31;;;13.29;71.14
13312;BME280;34033;48.672;9.376;2022-12-29T14:05:31;98027.63;;;13.54;70.28
13312;BME280;34033;48.672;9.376;2022-12-29T14:08:03;98027.56;;;13.61;68.81
13312;BME280;34033;48.672;9.376;2022-12-29T14:13:13;98028.69;;;13.67;68.45
13312;BME280;34033;48.672;9.376;2022-12-29T14:15:43;98021.56;;;13.89;68.50
13312;BME280;34033;48.672;9.376;2022-12-29T14:18:21;98020.44;;;14.10;68.36
13312;BME280;34033;48.672;9.376;2022-12-29T14:20:54;98014.34;;;14.15;66.82
13312;BME280;34033;48.672;9.376;2022-12-29T14:23:36;98021.13;;;14.17;66.54
13312;BME280;34033;48.672;9.376;2022-12-29T14:28:42;98010.81;;;14.11;66.00
13312;BME280;34033;48.672;9.376;2022-12-29T14:33:40;98026.00;;;13.87;66.78
13312;BME280;34033;48.672;9.376;2022-12-29T14:36:25;98013.31;;;13.75;66.73
13312;BME280;34033;48.672;9.376;2022-12-29T14:38:51;98021.78;;;13.71;66.77
13312;BME280;34033;48.672;9.376;2022-12-29T14:41:27;98015.50;;;13.60;67.40
13312;BME280;34033;48.672;9.376;2022-12-29T14:44:17;98015.50;;;13.60;69.96
13312;BME280;34033;48.672;9.376;2022-12-29T14:46:46;98027.16;;;13.59;67.99
13312;BME280;34033;48.672;9.376;2022-12-29T14:49:17;98029.31;;;13.48;67.08
13312;BME280;34033;48.672;9.376;2022-12-29T14:51:43;98037.84;;;13.37;67.40
13312;BME280;34033;48.672;9.376;2022-12-29T14:57:06;98032.50;;;13.50;69.63
13312;BME280;34033;48.672;9.376;2022-12-29T14:59:34;98033.88;;;13.34;67.96
13312;BME280;34033;48.672;9.376;2022-12-29T15:02:03;98033.63;;;13.22;68.81
13312;BME280;34033;48.672;9.376;2022-12-29T15:04:35;98033.28;;;13.16;69.12
13312;BME280;34033;48.672;9.376;2022-12-29T15:07:02;98030.69;;;12.95;69.02
13312;BME280;34033;48.672;9.376;2022-12-29T15:09:47;98029.88;;;12.94;70.40
13312;BME280;34033;48.672;9.376;2022-12-29T15:17:32;98033.25;;;12.79;70.90
13312;BME280;34033;48.672;9.376;2022-12-29T15:20:00;98025.09;;;12.91;74.98
13312;BME280;34033;48.672;9.376;2022-12-29T15:22:27;98035.06;;;12.96;71.95
13312;BME280;34033;48.672;9.376;2022-12-29T15:24:54;98039.16;;;12.88;71.16